sensor_id;sensor_type;location;lat;lon;timestamp;pressure;altitude;pressure_sealevel;temperature;humidity
25130;BME280;13308;50.860;13.664;2023-03-04T07:20:34;96902.41;;;1.13;100.00
25130;BME280;13308;50.860;13.664;2023-03-04T07:22:59;96898.47;;;1.45;100.00
25130;BME280;13308;50.860;13.664;2023-03-04T07:25:25;96902.75;;;1.27;100.00
25130;BME280;13308;50.860;13.664;2023-03-04T07:27:50;96900.72;;;1.24;100.00
25130;BME280;13308;50.860;13.664;2023-03-04T07:30:15;96901.75;;;1.35;100.00
25130;BME280;13308;50.860;13.664;2023-03-04T07:32:41;96896.59;;;1.30;100.00
25130;BME280;13308;50.860;13.664;2023-03-04T07:35:06;96901.31;;;1.14;100.00
25130;BME280;13308;50.860;13.664;2023-03-04T07:37:32;96902.59;;;1.20;100.00
25130;BME280;13308;50.860;13.664;2023-03-04T07:39:57;96896.22;;;1.12;100.00
25130;BME280;13308;50.860;13.664;2023-03-04T07:42:22;96895.06;;;1.13;100.00
25130;BME280;13308;50.860;13.664;2023-03-04T07:44:56;96897.78;;;1.13;100.00
25130;BME280;13308;50.860;13.664;2023-03-04T07:47:21;96903.16;;;1.10;100.00
25130;BME280;13308;50.860;13.664;2023-03-04T07:49:47;96894.00;;;1.18;100.00
25130;BME280;13308;50.860;13.664;2023-03-04T07:52:12;96893.59;;;1.16;100.00
25130;BME280;13308;50.860;13.664;2023-03-04T07:54:38;96898.72;;;1.02;100.00
25130;BME280;13308;50.860;13.664;2023-03-04T07:57:04;96898.53;;;1.10;100.00
25130;BME280;13308;50.860;13.664;2023-03-04T07:59:29;96894.00;;;1.18;100.00
25130;BME280;13308;50.860;13.664;2023-03-04T08:01:54;96899.28;;;1.11;100.00
25130;BME280;13308;50.860;13.664;2023-03-04T08:04:19;96900.22;;;1.18;100.00
25130;BME280;13308;50.860;13.664;2023-03-04T08:06:45;96897.59;;;1.22;100.00
25130;BME280;13308;50.860;13.664;2023-03-04T08:09:12;96897.38;;;1.30;100.00
25130;BME280;13308;50.860;13.664;2023-03-04T08:11:38;96890.09;;;1.34;100.00
25130;BME280;13308;50.860;13.664;2023-03-04T08:14:03;96886.03;;;1.44;100.00
25130;BME280;13308;50.860;13.664;2023-03-04T08:16:29;96882.88;;;1.42;100.00
25130;BME280;13308;50.860;13.664;2023-03-04T08:18:57;96889.31;;;1.53;100.00
25130;BME280;13308;50.860;13.664;2023-03-04T08:21:24;96881.72;;;1.62;100.00
25130;BME280;13308;50.860;13.664;2023-03-04T08:23:51;96886.56;;;1.72;100.00
25130;BME280;13308;50.860;13.664;2023-03-04T08:26:22;96880.13;;;1.80;100.00
25130;BME280;13308;50.860;13.664;2023-03-04T08:28:48;96880.34;;;1.71;100.00
25130;BME280;13308;50.860;13.664;2023-03-04T08:31:16;96882.56;;;1.85;100.00
25130;BME280;13308;50.860;13.664;2023-03-04T08:33:42;96882.41;;;1.97;100.00
25130;BME280;13308;50.860;13.664;2023-03-04T08:36:08;96888.59;;;1.97;100.00
25130;BME280;13308;50.860;13.664;2023-03-04T08:38:34;96874.53;;;1.92;100.00
25130;BME280;13308;50.860;13.664;2023-03-04T08:40:59;96878.41;;;2.13;100.00
25130;BME280;13308;50.860;13.664;2023-03-04T08:43:26;96871.75;;;2.11;100.00
25130;BME280;13308;50.860;13.664;2023-03-04T08:45:52;96869.72;;;2.27;100.00
25130;BME280;13308;50.860;13.664;2023-03-04T08:48:19;96877.09;;;2.52;100.00
25130;BME280;13308;50.860;13.664;2023-03-04T08:50:45;96877.78;;;2.46;100.00
25130;BME280;13308;50.860;13.664;2023-03-04T08:53:11;96873.06;;;2.65;100.00
25130;BME280;13308;50.860;13.664;2023-03-04T08:55:37;96872.63;;;2.63;100.00
25130;BME280;13308;50.860;13.664;2023-03-04T08:58:03;96870.16;;;2.55;100.00
25130;BME280;13308;50.860;13.664;2023-03-04T09:00:29;96864.75;;;2.58;100.00
25130;BME280;13308;50.860;13.664;2023-03-04T09:02:54;96867.22;;;2.41;100.00
25130;BME280;13308;50.860;13.664;2023-03-04T09:05:20;96866.81;;;2.39;100.00
25130;BME280;13308;50.860;13.664;2023-03-04T09:07:45;96877.03;;;2.71;100.00
25130;BME280;13308;50.860;13.664;2023-03-04T09:10:11;96871.75;;;2.56;100.00
25130;BME280;13308;50.860;13.664;2023-03-04T09:12:37;96876.28;;;2.48;100.00
25130;BME280;13308;50.860;13.664;2023-03-04T09:15:02;96881.16;;;2.62;100.00
25130;BME280;13308;50.860;13.664;2023-03-04T09:17:30;96876.88;;;2.87;100.00
25130;BME280;13308;50.860;13.664;2023-03-04T09:19:55;96867.16;;;2.86;100.00
25130;BME280;13308;50.860;13.664;2023-03-04T09:22:21;96871.22;;;2.73;100.00
25130;BME280;13308;50.860;13.664;2023-03-04T09:24:46;96880.22;;;2.77;100.00
25130;BME280;13308;50.860;13.664;2023-03-04T09:27:11;96876.91;;;3.16;100.00
25130;BME280;13308;50.860;13.664;2023-03-04T09:29:37;96878.91;;;2.93;100.00
25130;BME280;13308;50.860;13.664;2023-03-04T09:32:02;96872.41;;;2.75;100.00
25130;BME280;13308;50.860;13.664;2023-03-04T09:34:27;96872.16;;;2.84;100.00
25130;BME280;13308;50.860;13.664;2023-03-04T09:36:53;96872.69;;;2.93;100.00
25130;BME280;13308;50.860;13.664;2023-03-04T09:39:18;96875.13;;;2.75;100.00
25130;BME280;13308;50.860;13.664;2023-03-04T09:41:51;96861.25;;;2.84;100.00
25130;BME280;13308;50.860;13.664;2023-03-04T09:44:41;96871.53;;;2.94;100.00
25130;BME280;13308;50.860;13.664;2023-03-04T09:47:17;96866.00;;;2.87;100.00
25130;BME280;13308;50.860;13.664;2023-03-04T09:49:54;96872.09;;;2.80;100.00
25130;BME280;13308;50.860;13.664;2023-03-04T09:52:33;96863.00;;;2.95;100.00
25130;BME280;13308;50.860;13.664;2023-03-04T09:55:30;96865.47;;;3.04;100.00
25130;BME280;13308;50.860;13.664;2023-03-04T09:58:19;96852.25;;;3.06;100.00
25130;BME280;13308;50.860;13.664;2023-03-04T10:00:54;96857.69;;;3.06;100.00
25130;BME280;13308;50.860;13.664;2023-03-04T10:03:24;96850.44;;;3.17;100.00
25130;BME280;13308;50.860;13.664;2023-03-04T10:06:01;96851.03;;;3.33;100.00
25130;BME280;13308;50.860;13.664;2023-03-04T10:11:20;96855.19;;;3.53;100.00
25130;BME280;13308;50.860;13.664;2023-03-04T10:16:44;96855.38;;;3.37;100.00
25130;BME280;13308;50.860;13.664;2023-03-04T10:19:23;96856.16;;;3.38;100.00
25130;BME280;13308;50.860;13.664;2023-03-04T10:21:51;96857.22;;;3.30;100.00
25130;BME280;13308;50.860;13.664;2023-03-04T10:24:19;96844.47;;;3.08;100.00
25130;BME280;13308;50.860;13.664;2023-03-04T10:26:51;96846.25;;;3.23;100.00
25130;BME280;13308;50.860;13.664;2023-03-04T10:29:20;96842.97;;;3.10;100.00
25130;BME280;13308;50.860;13.664;2023-03-04T10:31:46;96846.56;;;3.18;100.00
25130;BME280;13308;50.860;13.664;2023-03-04T10:34:14;96839.78;;;3.05;100.00
25130;BME280;13308;50.860;13.664;2023-03-04T10:39:38;96829.06;;;3.19;100.00
25130;BME280;13308;50.860;13.664;2023-03-04T10:44:51;96827.97;;;2.94;100.00
25130;BME280;13308;50.860;13.664;2023-03-04T10:47:17;96828.03;;;3.01;100.00
25130;BME280;13308;50.860;13.664;2023-03-04T10:49:57;96826.97;;;3.09;100.00
25130;BME280;13308;50.860;13.664;2023-03-04T10:52:38;96840.63;;;3.12;100.00
25130;BME280;13308;50.860;13.664;2023-03-04T10:55:14;96836.63;;;3.03;100.00
25130;BME280;13308;50.860;13.664;2023-03-04T10:57:42;96833.41;;;2.94;100.00
25130;BME280;13308;50.860;13.664;2023-03-04T11:02:44;96814.75;;;2.96;100.00
25130;BME280;13308;50.860;13.664;2023-03-04T11:05:21;96825.19;;;2.90;100.00
25130;BME280;13308;50.860;13.664;2023-03-04T11:10:29;96824.06;;;2.95;100.00
25130;BME280;13308;50.860;13.664;2023-03-04T11:13:11;96819.03;;;2.97;100.00
25130;BME280;13308;50.860;13.664;2023-03-04T11:16:00;96818.00;;;3.05;100.00
25130;BME280;13308;50.860;13.664;2023-03-04T11:18:27;96821.16;;;3.10;100.00
25130;BME280;13308;50.860;13.664;2023-03-04T11:20:55;96817.91;;;2.98;100.00
25130;BME280;13308;50.860;13.664;2023-03-04T11:26:03;96808.53;;;2.95;100.00
25130;BME280;13308;50.860;13.664;2023-03-04T11:28:41;96818.34;;;3.03;100.00
25130;BME280;13308;50.860;13.664;2023-03-04T11:31:15;96809.97;;;3.19;100.00
25130;BME280;13308;50.860;13.664;2023-03-04T11:37:38;96811.38;;;3.06;100.00
25130;BME280;13308;50.860;13.664;2023-03-04T11:40:20;96811.66;;;2.97;100.00
25130;BME280;13308;50.860;13.664;2023-03-04T11:42:54;96810.41;;;2.91;100.00
25130;BME280;13308;50.860;13.664;2023-03-04T11:48:32;96810.38;;;3.21;100.00
25130;BME280;13308;50.860;13.664;2023-03-04T11:51:06;96807.72;;;3.24;100.00
25130;BME280;13308;50.860;13.664;2023-03-04T11:56:34;96797.50;;;3.51;100.00
25130;BME280;13308;50.860;13.664;2023-03-04T11:59:09;96794.84;;;3.54;100.00
25130;BME280;13308;50.860;13.664;2023-03-04T12:04:48;96796.91;;;3.68;100.00
25130;BME280;13308;50.860;13.664;2023-03-04T12:07:42;96787.78;;;3.53;100.00
25130;BME280;13308;50.860;13.664;2023-03-04T12:10:32;96791.72;;;3.56;100.00
25130;BME280;13308;50.860;13.664;2023-03-04T12:24:10;96772.38;;;3.31;100.00
25130;BME280;13308;50.860;13.664;2023-03-04T12:26:44;96769.25;;;3.33;100.00
25130;BME280;13308;50.860;13.664;2023-03-04T12:31:59;96770.50;;;3.39;100.00
25130;BME280;13308;50.860;13.664;2023-03-04T12:34:31;96770.09;;;3.37;100.00
25130;BME280;13308;50.860;13.664;2023-03-04T12:37:07;96777.97;;;3.45;100.00
25130;BME280;13308;50.860;13.664;2023-03-04T12:39:40;96765.69;;;3.62;100.00
25130;BME280;13308;50.860;13.664;2023-03-04T12:42:39;96762.47;;;3.49;100.00
25130;BME280;13308;50.860;13.664;2023-03-04T12:45:21;96761.66;;;3.49;100.00
25130;BME280;13308;50.860;13.664;2023-03-04T12:48:11;96760.50;;;3.50;100.00
25130;BME280;13308;50.860;13.664;2023-03-04T12:51:14;96753.16;;;3.54;100.00
25130;BME280;13308;50.860;13.664;2023-03-04T12:53:58;96752.38;;;3.57;100.00
25130;BME280;13308;50.860;13.664;2023-03-04T12:56:39;96751.28;;;3.61;100.00
25130;BME280;13308;50.860;13.664;2023-03-04T12:59:13;96751.66;;;3.60;100.00
25130;BME280;13308;50.860;13.664;2023-03-04T13:01:51;96747.75;;;3.61;100.00
25130;BME280;13308;50.860;13.664;2023-03-04T13:07:33;96745.41;;;3.59;100.00
25130;BME280;13308;50.860;13.664;2023-03-04T13:10:22;96735.34;;;3.67;100.00
25130;BME280;13308;50.860;13.664;2023-03-04T13:15:26;96730.69;;;3.67;100.00
25130;BME280;13308;50.860;13.664;2023-03-04T13:17:54;96730.00;;;3.81;100.00
25130;BME280;13308;50.860;13.664;2023-03-04T13:22:59;96721.44;;;3.79;100.00
25130;BME280;13308;50.860;13.664;2023-03-04T13:35:58;96731.53;;;3.75;100.00
25130;BME280;13308;50.860;13.664;2023-03-04T13:43:52;96731.19;;;3.80;100.00
25130;BME280;13308;50.860;13.664;2023-03-04T13:51:32;96717.63;;;3.87;100.00
25130;BME280;13308;50.860;13.664;2023-03-04T13:56:29;96716.00;;;3.82;100.00
25130;BME280;13308;50.860;13.664;2023-03-04T14:01:33;96719.19;;;3.88;100.00
25130;BME280;13308;50.860;13.664;2023-03-04T14:04:01;96714.53;;;3.92;100.00
25130;BME280;13308;50.860;13.664;2023-03-04T14:06:28;96707.56;;;3.98;100.00
25130;BME280;13308;50.860;13.664;2023-03-04T14:08:55;96706.03;;;4.04;100.00
25130;BME280;13308;50.860;13.664;2023-03-04T14:11:36;96707.66;;;4.08;100.00
25130;BME280;13308;50.860;13.664;2023-03-04T14:14:10;96701.44;;;4.15;100.00
25130;BME280;13308;50.860;13.664;2023-03-04T14:16:39;96701.09;;;4.20;100.00
25130;BME280;13308;50.860;13.664;2023-03-04T14:19:11;96696.41;;;4.17;100.00
25130;BME280;13308;50.860;13.664;2023-03-04T14:21:43;96698.31;;;4.13;100.00
25130;BME280;13308;50.860;13.664;2023-03-04T14:24:14;96701.06;;;4.13;100.00
25130;BME280;13308;50.860;13.664;2023-03-04T14:26:40;96693.72;;;4.24;100.00
25130;BME280;13308;50.860;13.664;2023-03-04T14:29:20;96694.50;;;4.28;100.00
25130;BME280;13308;50.860;13.664;2023-03-04T14:31:45;96678.94;;;4.28;100.00
25130;BME280;13308;50.860;13.664;2023-03-04T14:34:20;96684.41;;;4.32;100.00
25130;BME280;13308;50.860;13.664;2023-03-04T14:36:47;96682.81;;;4.24;100.00
25130;BME280;13308;50.860;13.664;2023-03-04T14:39:15;96685.09;;;4.15;100.00
25130;BME280;13308;50.860;13.664;2023-03-04T14:41:42;96680.75;;;4.10;100.00
25130;BME280;13308;50.860;13.664;2023-03-04T14:44:28;96679.63;;;4.15;100.00
25130;BME280;13308;50.860;13.664;2023-03-04T14:46:58;96677.63;;;4.05;100.00
25130;BME280;13308;50.860;13.664;2023-03-04T14:49:26;96684.69;;;4.13;100.00
25130;BME280;13308;50.860;13.664;2023-03-04T14:51:52;96675.69;;;4.09;100.00
25130;BME280;13308;50.860;13.664;2023-03-04T14:54:44;96669.44;;;4.05;100.00
25130;BME280;13308;50.860;13.664;2023-03-04T14:57:25;96665.91;;;4.01;100.00
25130;BME280;13308;50.860;13.664;2023-03-04T14:59:52;96660.84;;;4.03;100.00
25130;BME280;13308;50.860;13.664;2023-03-04T15:02:33;96663.16;;;4.01;100.00
25130;BME280;13308;50.860;13.664;2023-03-04T15:05:07;96666.72;;;4.05;100.00
25130;BME280;13308;50.860;13.664;2023-03-04T15:07:34;96663.97;;;4.05;100.00
25130;BME280;13308;50.860;13.664;2023-03-04T15:10:03;96658.09;;;3.99;100.00
25130;BME280;13308;50.860;13.664;2023-03-04T15:12:32;96665.53;;;4.02;100.00
25130;BME280;13308;50.860;13.664;2023-03-04T15:14:59;96661.59;;;4.00;100.00
25130;BME280;13308;50.860;13.664;2023-03-04T15:20:11;96667.81;;;3.97;100.00
25130;BME280;13308;50.860;13.664;2023-03-04T15:25:14;96669.34;;;3.94;100.00
25130;BME280;13308;50.860;13.664;2023-03-04T15:27:41;96662.38;;;4.04;100.00
25130;BME280;13308;50.860;13.664;2023-03-04T15:30:15;96666.25;;;3.99;100.00
25130;BME280;13308;50.860;13.664;2023-03-04T15:32:41;96656.88;;;3.97;100.00
25130;BME280;13308;50.860;13.664;2023-03-04T15:35:11;96665.50;;;3.99;100.00
25130;BME280;13308;50.860;13.664;2023-03-04T15:37:37;96671.03;;;4.13;100.00
25130;BME280;13308;50.860;13.664;2023-03-04T15:40:06;96666.22;;;3.92;100.00
25130;BME280;13308;50.860;13.664;2023-03-04T15:42:36;96666.19;;;3.89;100.00
25130;BME280;13308;50.860;13.664;2023-03-04T15:45:13;96666.19;;;3.85;100.00
25130;BME280;13308;50.860;13.664;2023-03-04T15:47:44;96656.38;;;3.81;100.00
25130;BME280;13308;50.860;13.664;2023-03-04T15:50:10;96655.25;;;3.82;100.00
25130;BME280;13308;50.860;13.664;2023-03-04T15:52:35;96661.41;;;3.75;100.00
25130;BME280;13308;50.860;13.664;2023-03-04T15:55:02;96660.22;;;3.73;100.00
25130;BME280;13308;50.860;13.664;2023-03-04T15:57:27;96660.59;;;3.71;100.00
25130;BME280;13308;50.860;13.664;2023-03-04T15:59:53;96660.56;;;3.68;100.00
25130;BME280;13308;50.860;13.664;2023-03-04T16:02:24;96670.66;;;3.60;100.00
25130;BME280;13308;50.860;13.664;2023-03-04T16:04:52;96674.91;;;3.58;100.00
25130;BME280;13308;50.860;13.664;2023-03-04T16:07:28;96672.09;;;3.51;100.00
25130;BME280;13308;50.860;13.664;2023-03-04T16:09:59;96677.94;;;3.49;100.00
25130;BME280;13308;50.860;13.664;2023-03-04T16:12:29;96666.19;;;3.42;100.00
25130;BME280;13308;50.860;13.664;2023-03-04T16:14:54;96675.53;;;3.41;100.00
25130;BME280;13308;50.860;13.664;2023-03-04T16:17:20;96674.38;;;3.42;100.00
25130;BME280;13308;50.860;13.664;2023-03-04T16:19:46;96672.34;;;3.35;100.00
25130;BME280;13308;50.860;13.664;2023-03-04T16:22:16;96663.41;;;3.35;100.00
25130;BME280;13308;50.860;13.664;2023-03-04T16:24:43;96670.03;;;3.34;100.00
25130;BME280;13308;50.860;13.664;2023-03-04T16:27:13;96671.16;;;3.33;100.00
25130;BME280;13308;50.860;13.664;2023-03-04T16:29:39;96672.31;;;3.32;100.00
25130;BME280;13308;50.860;13.664;2023-03-04T16:32:05;96675.44;;;3.30;100.00
25130;BME280;13308;50.860;13.664;2023-03-04T16:34:31;96669.94;;;3.27;100.00
25130;BME280;13308;50.860;13.664;2023-03-04T16:36:57;96675.03;;;3.32;100.00
25130;BME280;13308;50.860;13.664;2023-03-04T16:39:23;96667.63;;;3.29;100.00
25130;BME280;13308;50.860;13.664;2023-03-04T16:41:50;96673.09;;;3.29;100.00
25130;BME280;13308;50.860;13.664;2023-03-04T16:44:16;96675.88;;;3.36;100.00
25130;BME280;13308;50.860;13.664;2023-03-04T16:46:42;96665.25;;;3.24;100.00
25130;BME280;13308;50.860;13.664;2023-03-04T16:49:07;96666.41;;;3.23;100.00
25130;BME280;13308;50.860;13.664;2023-03-04T16:51:35;96663.25;;;3.21;100.00
25130;BME280;13308;50.860;13.664;2023-03-04T16:54:03;96671.00;;;3.15;100.00
25130;BME280;13308;50.860;13.664;2023-03-04T16:56:29;96658.53;;;3.14;100.00
25130;BME280;13308;50.860;13.664;2023-03-04T16:58:54;96660.47;;;3.14;100.00
25130;BME280;13308;50.860;13.664;2023-03-04T17:01:21;96667.09;;;3.16;100.00
25130;BME280;13308;50.860;13.664;2023-03-04T17:03:46;96667.09;;;3.16;100.00
25130;BME280;13308;50.860;13.664;2023-03-04T17:06:13;96659.31;;;3.15;100.00
25130;BME280;13308;50.860;13.664;2023-03-04T17:08:38;96665.19;;;3.17;100.00
25130;BME280;13308;50.860;13.664;2023-03-04T17:11:04;96670.34;;;3.29;100.00
25130;BME280;13308;50.860;13.664;2023-03-04T17:13:29;96667.13;;;3.20;100.00
25130;BME280;13308;50.860;13.664;2023-03-04T17:15:58;96673.34;;;3.17;100.00
25130;BME280;13308;50.860;13.664;2023-03-04T17:18:24;96672.16;;;3.14;100.00
25130;BME280;13308;50.860;13.664;2023-03-04T17:20:49;96674.88;;;3.14;100.00
25130;BME280;13308;50.860;13.664;2023-03-04T17:23:14;96677.94;;;3.09;100.00
25130;BME280;13308;50.860;13.664;2023-03-04T17:25:40;96683.81;;;3.15;100.00
25130;BME280;13308;50.860;13.664;2023-03-04T17:28:05;96684.97;;;3.14;100.00
25130;BME280;13308;50.860;13.664;2023-03-04T17:30:30;96684.19;;;3.10;100.00
25130;BME280;13308;50.860;13.664;2023-03-04T17:32:56;96688.47;;;3.11;100.00
25130;BME280;13308;50.860;13.664;2023-03-04T17:35:22;96697.38;;;3.08;100.00
25130;BME280;13308;50.860;13.664;2023-03-04T17:37:49;96693.88;;;3.07;100.00
25130;BME280;13308;50.860;13.664;2023-03-04T17:40:15;96700.53;;;3.10;100.00
25130;BME280;13308;50.860;13.664;2023-03-04T17:42:41;96702.81;;;3.08;100.00
25130;BME280;13308;50.860;13.664;2023-03-04T17:45:07;96692.69;;;3.05;100.00
25130;BME280;13308;50.860;13.664;2023-03-04T17:47:33;96703.16;;;3.03;100.00
25130;BME280;13308;50.860;13.664;2023-03-04T17:49:58;96691.50;;;3.02;100.00
25130;BME280;13308;50.860;13.664;2023-03-04T17:52:24;96692.63;;;2.98;100.00
25130;BME280;13308;50.860;13.664;2023-03-04T17:54:49;96689.88;;;2.98;100.00
25130;BME280;13308;50.860;13.664;2023-03-04T17:57:14;96685.53;;;2.93;100.00
25130;BME280;13308;50.860;13.664;2023-03-04T17:59:40;96690.22;;;2.93;100.00
25130;BME280;13308;50.860;13.664;2023-03-04T18:02:05;96690.22;;;2.93;100.00
25130;BME280;13308;50.860;13.664;2023-03-04T18:04:31;96690.97;;;2.93;100.00
25130;BME280;13308;50.860;13.664;2023-03-04T18:06:56;96688.66;;;2.92;100.00
25130;BME280;13308;50.860;13.664;2023-03-04T18:09:21;96699.44;;;2.85;100.00
25130;BME280;13308;50.860;13.664;2023-03-04T18:11:47;96696.72;;;2.85;100.00
25130;BME280;13308;50.860;13.664;2023-03-04T18:14:12;96692.75;;;2.79;100.00
25130;BME280;13308;50.860;13.664;2023-03-04T18:16:38;96687.69;;;2.77;100.00
25130;BME280;13308;50.860;13.664;2023-03-04T18:19:04;96695.88;;;2.77;100.00
25130;BME280;13308;50.860;13.664;2023-03-04T18:21:30;96688.78;;;2.73;100.00
25130;BME280;13308;50.860;13.664;2023-03-04T18:23:56;96691.50;;;2.73;100.00
25130;BME280;13308;50.860;13.664;2023-03-04T18:26:22;96697.72;;;2.70;100.00
25130;BME280;13308;50.860;13.664;2023-03-04T18:28:52;96697.72;;;2.70;100.00
25130;BME280;13308;50.860;13.664;2023-03-04T18:31:19;96694.94;;;2.66;100.00
25130;BME280;13308;50.860;13.664;2023-03-04T18:33:45;96694.94;;;2.66;100.00
25130;BME280;13308;50.860;13.664;2023-03-04T18:36:11;96690.63;;;2.62;100.00
25130;BME280;13308;50.860;13.664;2023-03-04T18:38:37;96694.44;;;2.57;100.00
25130;BME280;13308;50.860;13.664;2023-03-04T18:41:05;96694.00;;;2.52;100.00
25130;BME280;13308;50.860;13.664;2023-03-04T18:43:30;96688.19;;;2.53;100.00
25130;BME280;13308;50.860;13.664;2023-03-04T18:46:02;96688.09;;;2.50;100.00
25130;BME280;13308;50.860;13.664;2023-03-04T18:48:30;96688.88;;;2.47;100.00
25130;BME280;13308;50.860;13.664;2023-03-04T18:50:57;96692.75;;;2.46;100.00
25130;BME280;13308;50.860;13.664;2023-03-04T18:53:25;96696.19;;;2.43;100.00
25130;BME280;13308;50.860;13.664;2023-03-04T18:55:51;96697.28;;;2.38;100.00
25130;BME280;13308;50.860;13.664;2023-03-04T18:58:17;96694.94;;;2.37;100.00
25130;BME280;13308;50.860;13.664;2023-03-04T19:00:43;96699.63;;;2.36;100.00
25130;BME280;13308;50.860;13.664;2023-03-04T19:03:11;96704.25;;;2.36;100.00
25130;BME280;13308;50.860;13.664;2023-03-04T19:05:36;96702.75;;;2.38;100.00
25130;BME280;13308;50.860;13.664;2023-03-04T19:08:02;96696.94;;;2.40;100.00
25130;BME280;13308;50.860;13.664;2023-03-04T19:10:29;96693.06;;;2.41;100.00
25130;BME280;13308;50.860;13.664;2023-03-04T19:12:54;96701.63;;;2.43;100.00
25130;BME280;13308;50.860;13.664;2023-03-04T19:15:22;96699.22;;;2.38;100.00
25130;BME280;13308;50.860;13.664;2023-03-04T19:17:47;96698.81;;;2.36;100.00
25130;BME280;13308;50.860;13.664;2023-03-04T19:20:14;96687.16;;;2.35;100.00
25130;BME280;13308;50.860;13.664;2023-03-04T19:22:40;96695.72;;;2.37;100.00
25130;BME280;13308;50.860;13.664;2023-03-04T19:25:06;96697.34;;;2.42;100.00
25130;BME280;13308;50.860;13.664;2023-03-04T19:27:31;96688.72;;;2.36;100.00
